Main page
METAR-TAF:

METAR-TAF

Airports :

Najaf, Iraq

Al Najaf International Airport

latitude: 31-59-23N, longitude: 44-24-15E, elevation: 31 m

Current weather observation

The report was made 17 minutes ago, at 17:00 UTC
Wind 8 kt from the North
Temperature 40°C
Humidity 10%
Pressure 1001 hPa
Visibility: 8000 m

METAR: ORNI 261700Z 35008KT 8000 NSC 40/02 Q1001 NOSIG

Time: 20:17 (17:17 UTC)

Forecast

The report was made 7 hours and 17 minutes ago, at 10:00 UTC
Forecast valid from 26 at 12 UTC to 27 at 12 UTC
Wind 14 kt from the Northwest
Visibility 10 km or more
no clouds below 1500 m and no cumulonimbus

TAF: ORNI 261000Z 2612/2712 32014KT CAVOK

Weather observations and forecasts of more than 4000 airports (METAR and TAF reports).

The available stations are represented by yellow and red dots on the map.

Hover mouse over dot to see the name of the station.

Then click to see weather observations and forecasts.

To change the map : click on the green buttons with a black cross to zoom in, on the green button with a dash to zoom out, or on the green arrows for adjacent maps.


METAR-TAF: